Aviation Digital Data Service (ADDS)

Output produced by METARs form (1113 UTC 04 March 2015)
found at http://aviationweather.gov/adds/metars/
 
KMGW 040539Z 0406/0506 22005KT 3SM -RA BR FEW006 BKN009 OVC020 WS020/23050KT 
     TEMPO 0406/0407 1 1/2SM -RA BR 
     FM040700 25008KT 2SM -RA OVC007 
     FM042200 28005KT 2SM -SN OVC007